• Join FlightAware (Why Join?)
  • Login
  • US Flag 
09:56AM EDT


 

Airport Tracker/Info


-or-


 

Live Flight TrackerFlight Track Log ✈ TRS362 ✈ 01-May-2013 ✈ KLAS - KATL

Flight Track Log - Related Links

Times and Time Zones

All times are in EDT time to prevent confusion due to time zone crossing. See the TRS362 flight status page for this flight to view local times or setup timezone preferences in your user account.

Time Position Orientation Groundspeed Altitude Reporting Facility
EDT Latitude Longitude Course Direction KTS MPH feet Rate Location/Type
10:16AM 36.1072 -115.1525 45° Northeast 154 177 3,400  Level Los Angeles Center
10:17AM 36.1311 -115.1233 45° Northeast 203 234 4,500 1,500 Climbing Los Angeles Center
10:18AM 36.1319 -115.0928 88° East 223 257 5,200 2,820 Climbing Los Angeles Center
10:18AM 36.1356 -115.0342 86° East 266 306 7,400 3,060 Climbing Los Angeles Center
10:19AM 36.1403 -115.0011 80° East 263 303 8,400 2,220 Climbing Los Angeles Center
10:20AM 36.1425 -114.8992 88° East 303 349 10,800 2,520 Climbing Los Angeles Center
10:21AM 36.0947 -114.7592 113° Southeast 370 426 13,600 2,820 Climbing Los Angeles Center
10:22AM 36.0553 -114.6339 111° Southeast 389 448 16,600 2,460 Climbing Los Angeles Center
10:23AM 36.0119 -114.5011 112° Southeast 412 474 18,700 2,220 Climbing Los Angeles Center
10:24AM 35.9894 -114.3556 101° East 430 495 21,300 2,280 Climbing Los Angeles Center
10:25AM 35.9681 -114.2061 100° East 441 507 23,500 1,920 Climbing Los Angeles Center
10:26AM 35.9450 -114.0506 100° East 458 527 25,300 1,680 Climbing Los Angeles Center
10:27AM 35.9217 -113.8911 100° East 470 541 27,300 1,800 Climbing Los Angeles Center
10:28AM 35.8850 -113.6631 101° East 485 558 29,400 1,500 Climbing Los Angeles Center
10:29AM 35.8622 -113.5156 101° East 495 570 30,500 1,260 Climbing Los Angeles Center
10:30AM 35.8403 -113.3797 101° East 504 580 32,100 1,740 Climbing Los Angeles Center
10:31AM 35.8083 -113.1803 101° East 495 570 34,200 1,680 Climbing Los Angeles Center
10:32AM 35.7761 -112.9819 101° East 493 567 35,600 1,320 Climbing Los Angeles Center
10:33AM 35.7494 -112.8186 101° East 487 560 37,000 660 Climbing Los Angeles Center
10:34AM 35.7236 -112.6564 101° East 483 556 37,000  Level Los Angeles Center
10:35AM 35.6953 -112.4944 102° East 483 556 37,000  Level Los Angeles Center
10:36AM 35.6689 -112.3325 101° East 483 556 37,000  Level Los Angeles Center
10:37AM 35.6394 -112.1719 103° East 483 556 37,000  Level Los Angeles Center
10:38AM 35.6189 -112.0456 101° East 479 551 37,000  Level Albuquerque Center
10:39AM 35.5864 -111.8508 102° East 483 556 37,000  Level Albuquerque Center
10:40AM 35.5867 -111.6889 90° East 478 550 37,000  Level Albuquerque Center
10:41AM 35.5814 -111.5261 92° East 479 551 37,000  Level Albuquerque Center
10:42AM 35.5761 -111.3536 92° East 481 554 37,000  Level Albuquerque Center
10:43AM 35.5703 -111.1703 92° East 481 554 37,000  Level Albuquerque Center
10:44AM 35.5656 -111.0139 92° East 481 554 37,000  Level Albuquerque Center
10:46AM 35.5583 -110.8311 93° East 480 552 37,000  Level Albuquerque Center
10:47AM 35.5525 -110.6744 93° East 481 554 37,000  Level Albuquerque Center
10:48AM 35.5453 -110.4900 93° East 484 557 37,000  Level Albuquerque Center
10:49AM 35.5403 -110.3306 92° East 486 559 37,000  Level Albuquerque Center
10:50AM 35.5344 -110.1708 93° East 489 563 37,000  Level Albuquerque Center
10:51AM 35.5278 -109.9842 92° East 491 565 37,000  Level Albuquerque Center
10:52AM 35.5208 -109.8225 93° East 494 568 37,000  Level Albuquerque Center
10:53AM 35.5125 -109.6336 93° East 497 572 37,000  Level Albuquerque Center
10:54AM 35.5056 -109.4717 93° East 499 574 37,000  Level Albuquerque Center
10:55AM 35.4972 -109.2828 93° East 498 573 37,000  Level Albuquerque Center
10:56AM 35.4892 -109.1239 94° East 493 567 37,000  Level Albuquerque Center
10:57AM 35.4800 -108.9386 93° East 491 565 37,000  Level Albuquerque Center
10:58AM 35.4817 -108.7819 89° East 487 560 37,000  Level Albuquerque Center
10:59AM 35.4936 -108.5969 85° East 488 562 37,000  Level Albuquerque Center
11:00AM 35.5050 -108.4381 85° East 489 563 37,000  Level Albuquerque Center
11:01AM 35.5158 -108.2539 86° East 488 562 37,000  Level Albuquerque Center
11:02AM 35.5261 -108.0956 85° East 487 560 37,000  Level Albuquerque Center
11:03AM 35.5353 -107.9108 86° East 488 562 37,000  Level Albuquerque Center
11:04AM 35.5442 -107.7506 86° East 489 563 37,000  Level Albuquerque Center
11:05AM 35.5531 -107.5642 87° East 490 564 37,000  Level Albuquerque Center
11:06AM 35.5619 -107.4039 86° East 492 566 37,000  Level Albuquerque Center
11:07AM 35.5717 -107.2150 86° East 495 570 37,000  Level Albuquerque Center
11:08AM 35.5789 -107.0653 87° East 495 570 37,000  Level Albuquerque Center
11:09AM 35.5875 -106.8944 86° East 496 571 37,000  Level Albuquerque Center
11:10AM 35.5992 -106.6889 86° East 498 573 37,000  Level Albuquerque Center
11:11AM 35.6050 -106.5178 88° East 499 574 37,000  Level Albuquerque Center
11:12AM 35.6142 -106.3486 86° East 496 571 37,000  Level Albuquerque Center
11:13AM 35.6214 -106.1789 87° East 497 572 37,000  Level Albuquerque Center
11:14AM 35.6272 -106.0086 88° East 497 572 37,000  Level Albuquerque Center
11:16AM 35.6356 -105.8219 87° East 493 567 37,000  Level Albuquerque Center
11:17AM 35.6403 -105.6744 88° East 488 562 37,000  Level Albuquerque Center
11:18AM 35.6464 -105.4869 88° East 486 559 37,000  Level Albuquerque Center
11:19AM 35.6525 -105.3169 87° East 492 566 37,000  Level Albuquerque Center
11:20AM 35.6561 -105.1500 88° East 488 562 37,000  Level Albuquerque Center
11:21AM 35.6378 -104.9578 97° East 483 556 37,000  Level Albuquerque Center
11:22AM 35.6328 -104.7922 92° East 481 554 37,000  Level Albuquerque Center
11:23AM 35.6378 -104.6264 88° East 481 554 37,000  Level Albuquerque Center
11:24AM 35.6408 -104.4603 89° East 480 552 37,000  Level Albuquerque Center
11:25AM 35.6431 -104.2942 89° East 479 551 37,000  Level Albuquerque Center
11:26AM 35.6461 -104.1286 89° East 478 550 37,000 300 Level Albuquerque Center
11:27AM 35.6486 -103.9631 89° East 477 549 37,700 480 Climbing Albuquerque Center
11:28AM 35.6500 -103.7981 89° East 476 548 38,000 120 Climbing Albuquerque Center
11:29AM 35.6522 -103.6328 89° East 477 549 38,000  Level Albuquerque Center
11:30AM 35.6536 -103.4681 89° East 476 548 38,000  Level Albuquerque Center
11:31AM 35.6561 -103.2781 89° East 473 544 38,000  Level Albuquerque Center
11:32AM 35.6564 -103.1158 90° East 471 542 38,000 120 Level Albuquerque Center
11:33AM 35.6578 -102.9531 89° East 470 541 38,300 480 Climbing Albuquerque Center
11:34AM 35.6567 -102.7850 90° East 471 542 39,000 300 Climbing Albuquerque Center
11:35AM 35.6575 -102.6219 90° East 475 547 39,000  Level Albuquerque Center
11:36AM 35.6583 -102.4600 90° East 475 547 39,000  Level Albuquerque Center
11:37AM 35.6581 -102.2944 90° East 480 552 39,000  Level Albuquerque Center
11:38AM 35.6583 -102.1289 90° East 483 556 39,000  Level Albuquerque Center
11:39AM 35.6572 -101.9608 90° East 487 560 39,000  Level Albuquerque Center
11:40AM 35.6561 -101.7608 90° East 485 558 39,000  Level Albuquerque Center
11:41AM 35.6561 -101.5958 90° East 482 555 39,000  Level Albuquerque Center
11:42AM 35.6553 -101.4303 90° East 481 554 39,000  Level Albuquerque Center
11:43AM 35.6522 -101.2661 91° East 479 551 39,000  Level Albuquerque Center
11:44AM 35.6511 -101.1028 90° East 477 549 39,000  Level Albuquerque Center
11:45AM 35.6497 -100.9408 91° East 475 547 39,000  Level Albuquerque Center
11:47AM 35.6472 -100.7786 91° East 474 545 39,000  Level Albuquerque Center
11:48AM 35.6442 -100.5864 91° East 476 548 39,000  Level Albuquerque Center
11:49AM 35.6419 -100.4244 91° East 474 545 39,000  Level Albuquerque Center
11:50AM 35.6394 -100.2633 91° East 474 545 39,000  Level Albuquerque Center
11:51AM 35.6367 -100.1025 91° East 472 543 39,000  Level Albuquerque Center
11:52AM 35.6328 -99.9425 92° East 470 541 39,000  Level Albuquerque Center
11:53AM 35.6300 -99.7856 91° East 464 534 39,000  Level Albuquerque Center
11:54AM 35.6244 -99.6197 92° East 463 533 39,000  Level Fort Worth Center
11:54AM 35.6261 -99.5972 85° East 462 532 39,000  Level Kansas City Center
11:55AM 35.6189 -99.4614 94° East 463 533 39,000  Level Fort Worth Center
11:56AM 35.6172 -99.3031 91° East 463 533 39,000  Level Fort Worth Center
11:57AM 35.6128 -99.1625 92° East 463 533 39,000  Level Fort Worth Center
11:58AM 35.6086 -99.0042 92° East 463 533 39,000  Level Fort Worth Center
11:59AM 35.6044 -98.8483 92° East 463 533 39,000  Level Fort Worth Center
12:00PM 35.5997 -98.6900 92° East 463 533 39,000  Level Fort Worth Center
12:01PM 35.5950 -98.5342 92° East 458 527 39,000  Level Fort Worth Center
12:02PM 35.5922 -98.3861 91° East 452 520 39,000  Level Fort Worth Center
12:03PM 35.5869 -98.2328 92° East 447 514 39,000  Level Fort Worth Center
12:04PM 35.5781 -97.9897 93° East 455 524 39,000  Level Kansas City Center
12:05PM 35.5711 -97.8042 93° East 453 521 39,000  Level Kansas City Center
12:06PM 35.5644 -97.6483 93° East 442 509 39,000  Level Fort Worth Center
12:07PM 35.5606 -97.4928 92° East 442 509 39,000  Level Fort Worth Center
12:08PM 35.5583 -97.3369 91° East 448 516 39,000  Level Fort Worth Center
12:09PM 35.5458 -97.1814 96° East 453 521 39,000  Level Fort Worth Center
12:10PM 35.5369 -97.0183 94° East 448 516 39,000  Level Fort Worth Center
12:11PM 35.5281 -96.8653 94° East 443 510 39,000  Level Fort Worth Center
12:12PM 35.5211 -96.7147 93° East 443 510 39,000  Level Fort Worth Center
12:13PM 35.5117 -96.5619 94° East 443 510 39,000  Level Fort Worth Center
12:14PM 35.5064 -96.4114 92° East 443 510 39,000  Level Fort Worth Center
12:15PM 35.4989 -96.2561 93° East 443 510 39,000  Level Fort Worth Center
12:16PM 35.4911 -96.1031 94° East 443 510 39,000  Level Fort Worth Center
12:17PM 35.4811 -95.9528 95° East 443 510 39,000  Level Fort Worth Center
12:18PM 35.4753 -95.8053 93° East 438 504 39,000  Level Fort Worth Center
12:19PM 35.4689 -95.6525 93° East 443 510 39,000  Level Fort Worth Center
12:21PM 35.4508 -95.3728 94° East 453 521 39,000  Level Memphis Center
12:22PM 35.4406 -95.2167 95° East 453 521 39,000  Level Memphis Center
12:23PM 35.4297 -95.0633 95° East 453 521 39,000  Level Memphis Center
12:24PM 35.4208 -94.9072 94° East 458 527 39,000  Level Memphis Center
12:25PM 35.4100 -94.7464 95° East 463 533 39,000  Level Memphis Center
12:26PM 35.4008 -94.5906 94° East 463 533 39,000  Level Memphis Center
12:27PM 35.3911 -94.4372 94° East 463 533 39,000  Level Memphis Center
12:28PM 35.3797 -94.2786 95° East 463 533 39,000  Level Memphis Center
12:29PM 35.3697 -94.1256 95° East 463 533 39,000  Level Memphis Center
12:30PM 35.3578 -93.9722 95° East 463 533 39,000  Level Memphis Center
12:31PM 35.3497 -93.8139 94° East 463 533 39,000  Level Memphis Center
12:32PM 35.3411 -93.6686 94° East 463 533 39,000  Level Memphis Center
12:33PM 35.3286 -93.5078 95° East 452 520 39,000  Level Memphis Center
12:34PM 35.3178 -93.3572 95° East 452 520 39,000  Level Memphis Center
12:35PM 35.3047 -93.1964 96° East 463 533 39,000  Level Memphis Center
12:36PM 35.2956 -93.0461 94° East 468 539 39,000  Level Memphis Center
12:37PM 35.2819 -92.8956 96° East 453 521 39,000  Level Memphis Center
12:38PM 35.2706 -92.7425 95° East 446 513 39,000  Level Memphis Center
12:39PM 35.2544 -92.5869 97° East 446 513 39,000  Level Memphis Center
12:40PM 35.2467 -92.4394 94° East 446 513 39,000  Level Memphis Center
12:41PM 35.2322 -92.3017 97° East 451 519 39,000  Level Memphis Center
12:42PM 35.2200 -92.1361 95° East 446 513 39,000  Level Memphis Center
12:43PM 35.2053 -91.9861 97° East 446 513 39,000  Level Memphis Center
12:44PM 35.1947 -91.8358 95° East 446 513 39,000  Level Memphis Center
12:45PM 35.1778 -91.6858 98° East 451 519 39,000  Level Memphis Center
12:46PM 35.1667 -91.5306 95° East 446 513 39,000  Level Memphis Center
12:47PM 35.1533 -91.3806 96° East 451 519 39,000  Level Memphis Center
12:48PM 35.1378 -91.2281 97° East 446 513 39,000  Level Memphis Center
12:49PM 35.1306 -91.0731 93° East 451 519 39,000  Level Memphis Center
12:50PM 35.1981 -90.9389 58° Northeast 441 507 39,000  Level Memphis Center
12:51PM 35.2339 -90.8094 71° East 441 507 39,000  Level Memphis Center
12:52PM 35.2053 -90.6544 103° East 434 499 39,000  Level Memphis Center
12:53PM 35.1806 -90.5019 101° East 450 518 39,000  Level Memphis Center
12:54PM 35.1556 -90.3519 101° East 455 524 39,000  Level Memphis Center
12:55PM 35.1303 -90.2022 102° East 448 516 39,000  Level Memphis Center
12:56PM 35.1028 -90.0397 102° East 448 516 39,000  Level Memphis Center
12:57PM 35.0775 -89.8903 102° East 448 516 39,000  Level Memphis Center
12:58PM 35.0539 -89.7381 101° East 453 521 39,000  Level Memphis Center
12:59PM 35.0258 -89.5889 103° East 453 521 39,000  Level Memphis Center
01:00PM 34.9975 -89.4369 103° East 448 516 39,000  Level Memphis Center
01:01PM 34.9717 -89.3028 103° East 448 516 39,000  Level Memphis Center
01:02PM 34.9431 -89.1564 103° East 448 516 39,000  Level Memphis Center
01:03PM 34.9164 -89.0047 102° East 457 526 39,000  Level Memphis Center
01:04PM 34.8897 -88.8558 102° East 450 518 39,000 -420 Level Memphis Center
01:05PM 34.8628 -88.7094 103° East 444 511 38,200 -900 Descending Memphis Center
01:06PM 34.8314 -88.5506 103° East 444 511 37,300 -1,020 Descending Memphis Center
01:07PM 34.8042 -88.4097 103° East 442 509 36,200 -1,020 Descending Memphis Center
01:08PM 34.7789 -88.2636 102° East 442 509 35,300 -900 Descending Memphis Center
01:09PM 34.7511 -88.1100 102° East 448 516 34,400 -960 Descending Memphis Center
01:10PM 34.7214 -87.9617 104° East 454 522 33,400 -720 Descending Memphis Center
01:11PM 34.6933 -87.8186 103° East 443 510 33,000 -240 Descending Memphis Center
01:12PM 34.6653 -87.6756 103° East 438 504 33,000  Level Memphis Center
01:14PM 34.6200 -87.4286 102° East 436 502 33,000  Level Atlanta Center
01:15PM 34.5925 -87.2836 103° East 436 502 33,000  Level Atlanta Center
01:16PM 34.5650 -87.1414 103° East 436 502 33,000  Level Atlanta Center
01:17PM 34.5353 -86.9942 104° East 436 502 33,000 -240 Level Atlanta Center
01:18PM 34.5072 -86.8519 103° East 436 502 32,600 -720 Descending Atlanta Center
01:19PM 34.4811 -86.7100 103° East 436 502 31,600 -1,140 Descending Atlanta Center
01:20PM 34.4547 -86.5731 103° East 430 495 30,400 -1,320 Descending Atlanta Center
01:21PM 34.4303 -86.4464 103° East 413 475 29,000 -1,560 Descending Atlanta Center
01:22PM 34.4056 -86.3197 103° East 397 457 27,300 -1,680 Descending Atlanta Center
01:23PM 34.3806 -86.1958 104° East 377 434 25,700 -1,620 Descending Atlanta Center
01:24PM 34.3597 -86.0769 102° East 372 428 24,100 -1,500 Descending Atlanta Center
01:25PM 34.3344 -85.9581 104° East 366 421 22,800 -1,140 Descending Atlanta Center
01:26PM 34.3153 -85.8494 102° East 352 405 21,900 -960 Descending Atlanta Center
01:27PM 34.2917 -85.7433 105° East 328 377 20,900 -1,020 Descending Atlanta Center
01:28PM 34.2722 -85.6425 103° East 314 361 19,900 -960 Descending Atlanta Center
01:29PM 34.2486 -85.5339 105° East 320 368 19,000 -900 Descending Atlanta Center
01:30PM 34.2269 -85.4206 103° East 336 387 18,100 -900 Descending Atlanta Center
01:31PM 34.2011 -85.3072 105° East 346 398 17,200 -1,200 Descending Atlanta Center
01:32PM 34.1811 -85.1939 102° East 346 398 15,700 -1,500 Descending Atlanta Center
01:34PM 34.0825 -85.0194 124° Southeast 315 362 12,900 -1,020 Descending Atlanta Center
01:35PM 34.0183 -84.9686 147° Southeast 293 337 12,700 -720 Descending Atlanta Center
01:36PM 33.9411 -84.9503 169° South 279 321 11,500 -1,080 Descending Atlanta Center
01:37PM 33.8725 -84.9344 169° South 285 328 10,600 -900 Descending Atlanta Center
01:38PM 33.7911 -84.9236 174° South 285 328 9,700 -600 Descending Atlanta Center
01:39PM 33.7242 -84.9356 188° South 269 310 9,400 -600 Descending Atlanta Center
01:40PM 33.6700 -84.9175 164° South 223 257 8,600 -780 Descending Atlanta Center
01:41PM 33.6333 -84.8667 131° Southeast 179 206 7,800 -960 Descending Atlanta TRACON
01:42PM 33.6333 -84.8000 90° East 183 211 6,600 -1,080 Descending Atlanta TRACON
01:43PM 33.6333 -84.7500 90° East 175 201 5,700 -900 Descending Atlanta TRACON
01:44PM 33.6333 -84.6833 90° East 170 196 4,800 -900 Descending Atlanta TRACON
01:45PM 33.6333 -84.6333 90° East 162 186 4,000 -900 Descending Atlanta TRACON
01:46PM 33.6333 -84.5833 90° East 167 192 3,100 -900 Descending Atlanta TRACON
01:47PM 33.6333 -84.5333 90° East 151 174 2,300 -780 Descending Atlanta TRACON
01:48PM 33.6333 -84.4833 90° East 133 153 1,600 -720 Descending Atlanta TRACON
01:50PM 33.6367 -84.4279 90° East  Level Estimated
01:57PM 33.6367 -84.4279 90° East  Level Estimated